sensor_id;sensor_type;location;lat;lon;timestamp;pressure;altitude;pressure_sealevel;temperature;humidity
80853;BME280;70270;43.434;28.338;2024-02-26T00:02:37;100048.94;;;11.02;78.06
80853;BME280;70270;43.434;28.338;2024-02-26T00:05:22;99864.44;;;10.10;78.00
80853;BME280;70270;43.434;28.338;2024-02-26T00:08:06;100029.72;;;10.97;77.98
80853;BME280;70270;43.434;28.338;2024-02-26T00:10:51;99927.03;;;10.42;77.36
80853;BME280;70270;43.434;28.338;2024-02-26T00:13:36;100045.22;;;11.23;77.85
80853;BME280;70270;43.434;28.338;2024-02-26T00:16:20;99995.72;;;10.88;78.14
80853;BME280;70270;43.434;28.338;2024-02-26T00:19:04;100041.22;;;11.12;78.40
80853;BME280;70270;43.434;28.338;2024-02-26T00:21:49;100041.44;;;11.24;77.47
80853;BME280;70270;43.434;28.338;2024-02-26T00:24:33;99947.50;;;10.57;77.63
80853;BME280;70270;43.434;28.338;2024-02-26T00:27:18;100043.09;;;11.12;77.91
80853;BME280;70270;43.434;28.338;2024-02-26T00:30:03;100038.09;;;11.15;78.20
80853;BME280;70270;43.434;28.338;2024-02-26T00:32:47;100029.75;;;11.17;77.38
80853;BME280;70270;43.434;28.338;2024-02-26T00:35:32;100022.47;;;11.31;77.05
80853;BME280;70270;43.434;28.338;2024-02-26T00:38:17;100031.84;;;11.41;76.29
80853;BME280;70270;43.434;28.338;2024-02-26T00:41:01;99820.34;;;10.29;76.23
80853;BME280;70270;43.434;28.338;2024-02-26T00:43:47;99850.81;;;10.58;75.96
80853;BME280;70270;43.434;28.338;2024-02-26T00:46:31;100011.19;;;11.53;76.15
80853;BME280;70270;43.434;28.338;2024-02-26T00:49:16;100001.81;;;11.82;74.85
80853;BME280;70270;43.434;28.338;2024-02-26T00:52:00;99998.84;;;11.97;74.63
80853;BME280;70270;43.434;28.338;2024-02-26T00:54:45;100014.44;;;12.21;74.27
80853;BME280;70270;43.434;28.338;2024-02-26T00:57:29;100024.22;;;12.35;74.57
80853;BME280;70270;43.434;28.338;2024-02-26T01:00:14;99979.50;;;12.25;73.54
80853;BME280;70270;43.434;28.338;2024-02-26T01:02:59;99977.59;;;12.32;72.59
80853;BME280;70270;43.434;28.338;2024-02-26T01:05:45;99876.72;;;11.77;72.24
80853;BME280;70270;43.434;28.338;2024-02-26T01:08:29;99992.50;;;12.23;72.16
80853;BME280;70270;43.434;28.338;2024-02-26T01:11:13;100008.03;;;12.02;73.40
80853;BME280;70270;43.434;28.338;2024-02-26T01:13:58;99955.06;;;11.41;73.87
80853;BME280;70270;43.434;28.338;2024-02-26T01:16:42;100025.56;;;11.27;76.37
80853;BME280;70270;43.434;28.338;2024-02-26T01:19:27;99972.34;;;10.74;77.17
80853;BME280;70270;43.434;28.338;2024-02-26T01:22:11;99989.63;;;10.66;78.32
80853;BME280;70270;43.434;28.338;2024-02-26T01:24:55;100006.28;;;10.63;78.58
80853;BME280;70270;43.434;28.338;2024-02-26T01:27:41;100006.69;;;10.54;79.20
80853;BME280;70270;43.434;28.338;2024-02-26T01:30:27;99867.22;;;9.76;79.69
80853;BME280;70270;43.434;28.338;2024-02-26T01:33:11;100002.94;;;10.61;79.34
80853;BME280;70270;43.434;28.338;2024-02-26T01:35:56;99962.91;;;10.63;78.20
80853;BME280;70270;43.434;28.338;2024-02-26T01:38:40;100021.38;;;10.92;78.35
80853;BME280;70270;43.434;28.338;2024-02-26T01:41:25;100008.91;;;11.17;77.21
80853;BME280;70270;43.434;28.338;2024-02-26T01:44:12;99994.72;;;11.28;76.81
80853;BME280;70270;43.434;28.338;2024-02-26T01:46:58;99966.75;;;11.35;76.25
80853;BME280;70270;43.434;28.338;2024-02-26T01:49:42;99989.69;;;11.52;76.00
80853;BME280;70270;43.434;28.338;2024-02-26T01:52:26;99958.81;;;11.40;74.84
80853;BME280;70270;43.434;28.338;2024-02-26T01:55:11;100008.06;;;11.63;75.04
80853;BME280;70270;43.434;28.338;2024-02-26T01:57:56;99822.88;;;10.64;75.09
80853;BME280;70270;43.434;28.338;2024-02-26T02:00:40;100017.66;;;11.65;75.42
80853;BME280;70270;43.434;28.338;2024-02-26T02:03:25;100003.03;;;11.60;76.09
80853;BME280;70270;43.434;28.338;2024-02-26T02:06:09;99982.63;;;11.51;75.66
80853;BME280;70270;43.434;28.338;2024-02-26T02:08:54;100012.25;;;11.79;75.43
80853;BME280;70270;43.434;28.338;2024-02-26T02:11:39;100002.41;;;11.84;75.42
80853;BME280;70270;43.434;28.338;2024-02-26T02:14:24;99923.97;;;11.43;75.25
80853;BME280;70270;43.434;28.338;2024-02-26T02:17:09;99970.22;;;11.88;74.29
80853;BME280;70270;43.434;28.338;2024-02-26T02:19:54;100011.34;;;12.04;73.60
80853;BME280;70270;43.434;28.338;2024-02-26T02:22:39;100001.94;;;12.00;73.04
80853;BME280;70270;43.434;28.338;2024-02-26T02:25:23;99990.72;;;11.77;73.39
80853;BME280;70270;43.434;28.338;2024-02-26T02:28:08;99986.34;;;11.69;74.44
80853;BME280;70270;43.434;28.338;2024-02-26T02:30:53;100008.47;;;11.80;74.31
80853;BME280;70270;43.434;28.338;2024-02-26T02:33:38;99995.13;;;11.78;74.38
80853;BME280;70270;43.434;28.338;2024-02-26T02:36:23;100000.09;;;11.88;74.05
80853;BME280;70270;43.434;28.338;2024-02-26T02:39:07;99954.19;;;11.66;73.40
80853;BME280;70270;43.434;28.338;2024-02-26T02:41:52;100007.84;;;11.91;73.63
80853;BME280;70270;43.434;28.338;2024-02-26T02:44:36;99977.59;;;11.74;72.89
80853;BME280;70270;43.434;28.338;2024-02-26T02:47:21;99994.88;;;11.99;72.84
80853;BME280;70270;43.434;28.338;2024-02-26T02:50:06;99997.81;;;11.85;72.50
80853;BME280;70270;43.434;28.338;2024-02-26T02:52:50;99995.88;;;12.05;72.08
80853;BME280;70270;43.434;28.338;2024-02-26T02:55:35;99995.91;;;11.98;71.82
80853;BME280;70270;43.434;28.338;2024-02-26T02:58:19;99992.63;;;11.83;71.53
80853;BME280;70270;43.434;28.338;2024-02-26T03:01:04;100003.88;;;11.67;72.16
80853;BME280;70270;43.434;28.338;2024-02-26T03:03:48;99892.50;;;11.09;71.62
80853;BME280;70270;43.434;28.338;2024-02-26T03:06:33;99997.19;;;11.76;71.82
80853;BME280;70270;43.434;28.338;2024-02-26T03:09:17;99990.53;;;11.79;71.69
80853;BME280;70270;43.434;28.338;2024-02-26T03:12:02;99926.28;;;11.33;71.14
80853;BME280;70270;43.434;28.338;2024-02-26T03:14:46;99988.44;;;11.74;71.36
80853;BME280;70270;43.434;28.338;2024-02-26T03:17:31;99989.28;;;11.75;70.61
80853;BME280;70270;43.434;28.338;2024-02-26T03:20:15;99983.44;;;11.58;70.75
80853;BME280;70270;43.434;28.338;2024-02-26T03:23:03;99958.78;;;11.53;71.12
80853;BME280;70270;43.434;28.338;2024-02-26T03:25:48;99996.78;;;11.66;71.40
80853;BME280;70270;43.434;28.338;2024-02-26T03:28:32;99827.88;;;10.67;71.43
80853;BME280;70270;43.434;28.338;2024-02-26T03:31:17;99985.53;;;11.30;73.58
80853;BME280;70270;43.434;28.338;2024-02-26T03:34:01;99963.81;;;11.16;72.50
80853;BME280;70270;43.434;28.338;2024-02-26T03:36:46;99863.09;;;10.60;72.85
80853;BME280;70270;43.434;28.338;2024-02-26T03:39:30;99960.91;;;11.24;73.25
80853;BME280;70270;43.434;28.338;2024-02-26T03:42:15;99814.09;;;10.36;72.96
80853;BME280;70270;43.434;28.338;2024-02-26T03:45:00;100003.88;;;11.41;72.50
80853;BME280;70270;43.434;28.338;2024-02-26T03:47:45;100014.75;;;11.41;73.51
80853;BME280;70270;43.434;28.338;2024-02-26T03:50:29;99985.94;;;11.33;72.56
80853;BME280;70270;43.434;28.338;2024-02-26T03:53:13;99999.50;;;11.53;72.45
80853;BME280;70270;43.434;28.338;2024-02-26T03:56:03;100012.47;;;11.51;72.94
80853;BME280;70270;43.434;28.338;2024-02-26T03:58:47;100002.84;;;11.42;72.15
80853;BME280;70270;43.434;28.338;2024-02-26T04:01:32;100002.00;;;11.54;71.81
80853;BME280;70270;43.434;28.338;2024-02-26T04:04:16;100005.97;;;11.52;72.39
80853;BME280;70270;43.434;28.338;2024-02-26T04:07:01;99997.81;;;11.52;72.01
80853;BME280;70270;43.434;28.338;2024-02-26T04:09:45;99995.94;;;11.52;73.08
80853;BME280;70270;43.434;28.338;2024-02-26T04:12:30;100000.97;;;11.42;72.51
80853;BME280;70270;43.434;28.338;2024-02-26T04:15:15;99998.69;;;11.46;72.83
80853;BME280;70270;43.434;28.338;2024-02-26T04:17:59;99870.19;;;10.61;73.04
80853;BME280;70270;43.434;28.338;2024-02-26T04:20:44;99890.00;;;10.82;73.23
80853;BME280;70270;43.434;28.338;2024-02-26T04:23:28;99902.31;;;10.71;72.90
80853;BME280;70270;43.434;28.338;2024-02-26T04:26:13;99986.16;;;11.51;73.24
80853;BME280;70270;43.434;28.338;2024-02-26T04:28:57;99892.50;;;10.90;72.71
80853;BME280;70270;43.434;28.338;2024-02-26T04:31:42;99954.84;;;11.42;72.81
80853;BME280;70270;43.434;28.338;2024-02-26T04:34:27;99843.09;;;10.68;72.79
80853;BME280;70270;43.434;28.338;2024-02-26T04:37:11;100016.63;;;11.73;72.25
80853;BME280;70270;43.434;28.338;2024-02-26T04:39:59;99836.22;;;10.65;72.33
80853;BME280;70270;43.434;28.338;2024-02-26T04:42:44;99964.84;;;11.48;71.91
80853;BME280;70270;43.434;28.338;2024-02-26T04:45:29;100003.91;;;11.73;71.96
80853;BME280;70270;43.434;28.338;2024-02-26T04:48:13;100001.56;;;11.64;72.32
80853;BME280;70270;43.434;28.338;2024-02-26T04:50:58;100002.63;;;11.63;72.65
80853;BME280;70270;43.434;28.338;2024-02-26T04:53:42;99993.84;;;11.61;71.77
80853;BME280;70270;43.434;28.338;2024-02-26T04:56:27;99878.75;;;10.91;72.33
80853;BME280;70270;43.434;28.338;2024-02-26T04:59:11;100010.16;;;11.74;72.06
80853;BME280;70270;43.434;28.338;2024-02-26T05:01:56;99991.78;;;11.76;72.88
80853;BME280;70270;43.434;28.338;2024-02-26T05:04:40;100000.94;;;11.88;72.42
80853;BME280;70270;43.434;28.338;2024-02-26T05:07:25;100006.53;;;12.00;72.38
80853;BME280;70270;43.434;28.338;2024-02-26T05:10:10;99844.97;;;11.07;72.70
80853;BME280;70270;43.434;28.338;2024-02-26T05:12:55;99981.28;;;11.99;72.71
80853;BME280;70270;43.434;28.338;2024-02-26T05:15:39;99999.72;;;12.42;72.65
80853;BME280;70270;43.434;28.338;2024-02-26T05:18:23;99837.50;;;11.66;72.77
80853;BME280;70270;43.434;28.338;2024-02-26T05:21:08;99832.25;;;11.65;71.78
80853;BME280;70270;43.434;28.338;2024-02-26T05:23:52;100004.69;;;12.89;71.44
80853;BME280;70270;43.434;28.338;2024-02-26T05:26:38;99922.09;;;12.59;72.02
80853;BME280;70270;43.434;28.338;2024-02-26T05:29:22;100014.56;;;13.22;70.59
80853;BME280;70270;43.434;28.338;2024-02-26T05:32:07;99936.78;;;12.76;70.31
80853;BME280;70270;43.434;28.338;2024-02-26T05:34:51;99874.19;;;12.27;69.51
80853;BME280;70270;43.434;28.338;2024-02-26T05:37:36;100023.81;;;13.14;69.97
80853;BME280;70270;43.434;28.338;2024-02-26T05:40:20;100022.16;;;13.13;69.24
80853;BME280;70270;43.434;28.338;2024-02-26T05:43:05;100022.53;;;13.17;68.98
80853;BME280;70270;43.434;28.338;2024-02-26T05:45:49;100005.94;;;12.93;68.94
80853;BME280;70270;43.434;28.338;2024-02-26T05:48:34;100030.59;;;12.98;68.96
80853;BME280;70270;43.434;28.338;2024-02-26T05:51:18;99873.03;;;12.09;68.73
80853;BME280;70270;43.434;28.338;2024-02-26T05:54:03;100020.81;;;12.84;68.42
80853;BME280;70270;43.434;28.338;2024-02-26T05:56:47;100038.13;;;12.96;68.95
80853;BME280;70270;43.434;28.338;2024-02-26T05:59:32;100035.25;;;12.91;68.98
80853;BME280;70270;43.434;28.338;2024-02-26T06:02:16;99958.91;;;12.55;69.48
80853;BME280;70270;43.434;28.338;2024-02-26T06:05:01;100033.88;;;13.13;69.59
80853;BME280;70270;43.434;28.338;2024-02-26T06:07:45;100001.78;;;12.91;70.08
80853;BME280;70270;43.434;28.338;2024-02-26T06:10:29;99875.88;;;12.21;70.21
80853;BME280;70270;43.434;28.338;2024-02-26T06:13:14;99895.03;;;12.33;70.17
80853;BME280;70270;43.434;28.338;2024-02-26T06:15:58;99982.22;;;13.00;69.27
80853;BME280;70270;43.434;28.338;2024-02-26T06:18:43;100035.66;;;13.26;69.14
80853;BME280;70270;43.434;28.338;2024-02-26T06:21:28;99886.63;;;12.41;69.27
80853;BME280;70270;43.434;28.338;2024-02-26T06:24:12;100010.28;;;13.32;69.11
80853;BME280;70270;43.434;28.338;2024-02-26T06:26:57;99991.63;;;13.11;69.23
80853;BME280;70270;43.434;28.338;2024-02-26T06:29:41;99825.31;;;12.27;69.52
80853;BME280;70270;43.434;28.338;2024-02-26T06:32:26;99905.41;;;12.80;69.06
80853;BME280;70270;43.434;28.338;2024-02-26T06:35:13;100045.97;;;13.74;68.90
80853;BME280;70270;43.434;28.338;2024-02-26T06:37:57;100030.00;;;13.77;68.33
80853;BME280;70270;43.434;28.338;2024-02-26T06:40:42;100015.03;;;13.86;67.87
80853;BME280;70270;43.434;28.338;2024-02-26T06:43:26;100050.88;;;14.08;67.64
80853;BME280;70270;43.434;28.338;2024-02-26T06:46:11;99978.34;;;13.89;67.24
80853;BME280;70270;43.434;28.338;2024-02-26T06:48:55;99970.78;;;13.91;67.05
80853;BME280;70270;43.434;28.338;2024-02-26T06:51:40;100047.66;;;14.54;65.90
80853;BME280;70270;43.434;28.338;2024-02-26T06:54:24;100053.63;;;14.44;66.16
80853;BME280;70270;43.434;28.338;2024-02-26T06:57:09;100031.31;;;14.36;66.57
80853;BME280;70270;43.434;28.338;2024-02-26T06:59:53;99884.69;;;13.53;66.56
80853;BME280;70270;43.434;28.338;2024-02-26T07:02:38;100045.34;;;14.69;66.44
80853;BME280;70270;43.434;28.338;2024-02-26T07:05:22;100040.78;;;14.81;66.14
80853;BME280;70270;43.434;28.338;2024-02-26T07:08:07;99992.94;;;14.67;65.50
80853;BME280;70270;43.434;28.338;2024-02-26T07:10:51;100035.34;;;15.11;65.34
80853;BME280;70270;43.434;28.338;2024-02-26T07:13:36;100025.03;;;15.25;65.45
80853;BME280;70270;43.434;28.338;2024-02-26T07:16:20;99861.16;;;14.43;64.89
80853;BME280;70270;43.434;28.338;2024-02-26T07:19:05;100039.31;;;15.68;64.08
80853;BME280;70270;43.434;28.338;2024-02-26T07:21:49;100029.22;;;15.80;63.57
80853;BME280;70270;43.434;28.338;2024-02-26T07:24:34;100029.31;;;15.74;64.04
80853;BME280;70270;43.434;28.338;2024-02-26T07:27:18;100006.03;;;15.71;63.42
80853;BME280;70270;43.434;28.338;2024-02-26T07:30:05;100019.44;;;15.61;64.20
80853;BME280;70270;43.434;28.338;2024-02-26T07:32:50;99941.38;;;15.19;64.05
80853;BME280;70270;43.434;28.338;2024-02-26T07:35:35;100004.59;;;15.57;64.48
80853;BME280;70270;43.434;28.338;2024-02-26T07:38:20;100049.13;;;15.58;64.32
80853;BME280;70270;43.434;28.338;2024-02-26T07:41:05;100024.00;;;15.26;65.27
80853;BME280;70270;43.434;28.338;2024-02-26T07:43:49;100028.56;;;15.14;65.61
80853;BME280;70270;43.434;28.338;2024-02-26T07:46:34;99864.94;;;14.42;64.88
80853;BME280;70270;43.434;28.338;2024-02-26T07:49:19;100054.22;;;15.54;64.68
80853;BME280;70270;43.434;28.338;2024-02-26T07:52:04;99956.00;;;15.36;64.57
80853;BME280;70270;43.434;28.338;2024-02-26T07:54:48;99962.38;;;15.18;64.23
80853;BME280;70270;43.434;28.338;2024-02-26T07:57:33;100027.00;;;15.36;63.93
80853;BME280;70270;43.434;28.338;2024-02-26T08:00:20;99902.41;;;14.29;65.40
80853;BME280;70270;43.434;28.338;2024-02-26T08:03:05;100046.00;;;15.42;65.24
80853;BME280;70270;43.434;28.338;2024-02-26T08:05:51;100013.31;;;15.24;65.18
80853;BME280;70270;43.434;28.338;2024-02-26T08:08:35;100014.25;;;15.18;65.16
80853;BME280;70270;43.434;28.338;2024-02-26T08:11:20;100042.16;;;14.90;66.12
80853;BME280;70270;43.434;28.338;2024-02-26T08:14:04;99920.19;;;14.49;66.09
80853;BME280;70270;43.434;28.338;2024-02-26T08:16:49;100007.94;;;15.18;65.53
80853;BME280;70270;43.434;28.338;2024-02-26T08:19:33;100054.25;;;15.77;64.86
80853;BME280;70270;43.434;28.338;2024-02-26T08:22:20;100003.63;;;16.10;64.15
80853;BME280;70270;43.434;28.338;2024-02-26T08:25:04;100031.09;;;16.15;62.33
80853;BME280;70270;43.434;28.338;2024-02-26T08:27:51;100032.28;;;16.19;61.86
80853;BME280;70270;43.434;28.338;2024-02-26T08:30:35;100045.72;;;16.32;61.92
80853;BME280;70270;43.434;28.338;2024-02-26T08:33:20;100040.06;;;16.62;60.70
80853;BME280;70270;43.434;28.338;2024-02-26T08:36:05;100029.34;;;16.72;60.42
80853;BME280;70270;43.434;28.338;2024-02-26T08:38:49;100030.38;;;16.82;59.61
80853;BME280;70270;43.434;28.338;2024-02-26T08:41:34;100035.56;;;16.96;59.17
80853;BME280;70270;43.434;28.338;2024-02-26T08:44:18;99851.28;;;16.17;58.19
80853;BME280;70270;43.434;28.338;2024-02-26T08:47:03;100034.66;;;17.35;58.00
80853;BME280;70270;43.434;28.338;2024-02-26T08:49:48;100009.06;;;17.13;57.10
80853;BME280;70270;43.434;28.338;2024-02-26T08:52:33;100038.06;;;17.42;57.33
80853;BME280;70270;43.434;28.338;2024-02-26T08:55:21;100043.81;;;17.57;56.61
80853;BME280;70270;43.434;28.338;2024-02-26T08:58:05;100037.34;;;17.63;55.94
80853;BME280;70270;43.434;28.338;2024-02-26T09:00:50;100011.91;;;17.35;55.54
80853;BME280;70270;43.434;28.338;2024-02-26T09:03:35;100036.34;;;17.08;56.93
80853;BME280;70270;43.434;28.338;2024-02-26T09:06:19;100037.13;;;17.20;56.65
80853;BME280;70270;43.434;28.338;2024-02-26T09:09:04;100021.88;;;16.67;57.28
80853;BME280;70270;43.434;28.338;2024-02-26T09:11:48;100030.47;;;16.36;57.74
80853;BME280;70270;43.434;28.338;2024-02-26T09:14:36;100007.44;;;16.32;58.40
80853;BME280;70270;43.434;28.338;2024-02-26T09:17:20;100012.53;;;16.80;58.01
80853;BME280;70270;43.434;28.338;2024-02-26T09:20:05;99920.09;;;16.42;57.46
80853;BME280;70270;43.434;28.338;2024-02-26T09:22:50;100045.09;;;17.38;56.69
80853;BME280;70270;43.434;28.338;2024-02-26T09:25:35;100038.94;;;17.59;55.82
80853;BME280;70270;43.434;28.338;2024-02-26T09:28:19;100039.81;;;17.48;55.94
80853;BME280;70270;43.434;28.338;2024-02-26T09:31:05;99903.41;;;16.55;56.04
80853;BME280;70270;43.434;28.338;2024-02-26T09:33:50;100029.66;;;17.32;56.04
80853;BME280;70270;43.434;28.338;2024-02-26T09:36:35;100015.44;;;17.80;55.00
80853;BME280;70270;43.434;28.338;2024-02-26T09:39:19;99998.53;;;17.38;54.28
80853;BME280;70270;43.434;28.338;2024-02-26T09:42:06;99904.31;;;17.06;53.78
80853;BME280;70270;43.434;28.338;2024-02-26T09:44:54;100026.16;;;17.65;53.84
80853;BME280;70270;43.434;28.338;2024-02-26T09:47:41;99899.44;;;16.91;53.57
80853;BME280;70270;43.434;28.338;2024-02-26T09:50:27;100015.84;;;17.89;54.37
80853;BME280;70270;43.434;28.338;2024-02-26T09:53:12;99972.41;;;17.81;53.26
80853;BME280;70270;43.434;28.338;2024-02-26T09:55:58;99884.09;;;17.40;52.29
80853;BME280;70270;43.434;28.338;2024-02-26T09:58:43;100024.72;;;17.79;53.75
80853;BME280;70270;43.434;28.338;2024-02-26T10:01:29;99970.03;;;17.06;54.68
80853;BME280;70270;43.434;28.338;2024-02-26T10:04:18;99957.78;;;17.25;55.25
80853;BME280;70270;43.434;28.338;2024-02-26T10:07:04;99924.00;;;17.03;55.52
80853;BME280;70270;43.434;28.338;2024-02-26T10:09:50;99950.00;;;17.67;54.71
80853;BME280;70270;43.434;28.338;2024-02-26T10:12:35;100010.44;;;18.54;53.11
80853;BME280;70270;43.434;28.338;2024-02-26T10:15:19;99993.28;;;18.63;51.81
80853;BME280;70270;43.434;28.338;2024-02-26T10:18:05;100009.22;;;18.66;51.96
80853;BME280;70270;43.434;28.338;2024-02-26T10:21:00;100023.78;;;18.89;50.30
80853;BME280;70270;43.434;28.338;2024-02-26T10:23:48;99852.69;;;18.08;50.83
80853;BME280;70270;43.434;28.338;2024-02-26T10:26:33;99982.97;;;18.97;49.90
80853;BME280;70270;43.434;28.338;2024-02-26T10:29:19;100000.13;;;19.14;50.76
80853;BME280;70270;43.434;28.338;2024-02-26T10:32:04;99984.97;;;19.34;49.13
80853;BME280;70270;43.434;28.338;2024-02-26T10:34:55;99929.97;;;18.48;49.55
80853;BME280;70270;43.434;28.338;2024-02-26T10:37:43;100009.88;;;18.74;51.12
80853;BME280;70270;43.434;28.338;2024-02-26T10:40:27;99868.22;;;18.51;49.78
80853;BME280;70270;43.434;28.338;2024-02-26T10:43:12;99977.66;;;19.44;49.30
80853;BME280;70270;43.434;28.338;2024-02-26T10:45:58;99989.03;;;18.34;52.39
80853;BME280;70270;43.434;28.338;2024-02-26T10:48:53;99939.31;;;17.87;53.17
80853;BME280;70270;43.434;28.338;2024-02-26T10:51:38;99991.56;;;18.57;51.48
80853;BME280;70270;43.434;28.338;2024-02-26T10:54:24;99986.03;;;18.79;50.64
80853;BME280;70270;43.434;28.338;2024-02-26T10:57:09;99960.19;;;17.71;52.08
80853;BME280;70270;43.434;28.338;2024-02-26T10:59:56;99986.53;;;18.11;52.09
80853;BME280;70270;43.434;28.338;2024-02-26T11:02:41;99974.00;;;18.58;51.36
80853;BME280;70270;43.434;28.338;2024-02-26T11:05:25;99732.97;;;17.05;51.94
80853;BME280;70270;43.434;28.338;2024-02-26T11:08:11;99982.22;;;19.07;51.18
80853;BME280;70270;43.434;28.338;2024-02-26T11:10:56;99966.06;;;18.84;51.94
80853;BME280;70270;43.434;28.338;2024-02-26T11:13:42;99984.13;;;19.33;50.31
80853;BME280;70270;43.434;28.338;2024-02-26T11:16:30;99824.22;;;18.99;48.53
80853;BME280;70270;43.434;28.338;2024-02-26T11:19:15;99920.84;;;20.02;47.49
80853;BME280;70270;43.434;28.338;2024-02-26T11:22:01;99986.16;;;19.43;48.43
80853;BME280;70270;43.434;28.338;2024-02-26T11:24:46;99987.72;;;19.07;50.26
80853;BME280;70270;43.434;28.338;2024-02-26T11:27:36;99919.84;;;18.76;49.90
80853;BME280;70270;43.434;28.338;2024-02-26T11:30:25;99953.47;;;19.46;50.48
80853;BME280;70270;43.434;28.338;2024-02-26T11:33:11;99971.41;;;19.27;48.89
80853;BME280;70270;43.434;28.338;2024-02-26T11:35:56;99951.16;;;19.65;48.23
80853;BME280;70270;43.434;28.338;2024-02-26T11:38:43;99957.19;;;20.14;47.52
80853;BME280;70270;43.434;28.338;2024-02-26T11:41:28;99907.41;;;20.05;46.82
80853;BME280;70270;43.434;28.338;2024-02-26T11:44:13;99951.97;;;20.75;45.76
80853;BME280;70270;43.434;28.338;2024-02-26T11:46:57;99943.78;;;21.05;45.13
80853;BME280;70270;43.434;28.338;2024-02-26T11:49:42;99787.75;;;20.23;44.79
80853;BME280;70270;43.434;28.338;2024-02-26T11:52:27;99911.78;;;20.99;44.99
80853;BME280;70270;43.434;28.338;2024-02-26T11:55:11;99932.03;;;20.37;47.03
80853;BME280;70270;43.434;28.338;2024-02-26T11:57:56;99927.34;;;19.81;48.09
80853;BME280;70270;43.434;28.338;2024-02-26T12:00:41;99755.72;;;18.51;48.77
80853;BME280;70270;43.434;28.338;2024-02-26T12:03:25;99795.78;;;19.15;47.90
80853;BME280;70270;43.434;28.338;2024-02-26T12:06:10;99965.41;;;20.56;46.97
80853;BME280;70270;43.434;28.338;2024-02-26T12:08:56;99898.53;;;20.61;45.94
80853;BME280;70270;43.434;28.338;2024-02-26T12:11:40;99949.66;;;20.46;46.18
80853;BME280;70270;43.434;28.338;2024-02-26T12:14:26;99899.38;;;19.94;47.02
80853;BME280;70270;43.434;28.338;2024-02-26T12:17:25;99926.09;;;20.66;46.70
80853;BME280;70270;43.434;28.338;2024-02-26T12:20:13;99957.75;;;20.78;46.05
80853;BME280;70270;43.434;28.338;2024-02-26T12:22:58;99929.38;;;20.68;46.16
80853;BME280;70270;43.434;28.338;2024-02-26T12:25:43;99939.63;;;20.20;46.66
80853;BME280;70270;43.434;28.338;2024-02-26T12:28:29;99930.59;;;20.25;47.46
80853;BME280;70270;43.434;28.338;2024-02-26T12:31:13;99960.16;;;20.49;46.91
80853;BME280;70270;43.434;28.338;2024-02-26T12:34:01;99932.88;;;20.43;46.01
80853;BME280;70270;43.434;28.338;2024-02-26T12:36:46;99915.53;;;20.37;46.20
80853;BME280;70270;43.434;28.338;2024-02-26T12:39:31;99953.03;;;20.59;46.19
80853;BME280;70270;43.434;28.338;2024-02-26T12:42:15;99975.16;;;20.94;45.45
80853;BME280;70270;43.434;28.338;2024-02-26T12:45:00;99961.81;;;20.55;45.71
80853;BME280;70270;43.434;28.338;2024-02-26T12:47:45;99786.31;;;18.59;48.25
80853;BME280;70270;43.434;28.338;2024-02-26T12:50:30;99959.09;;;19.30;49.18
80853;BME280;70270;43.434;28.338;2024-02-26T12:53:16;99860.09;;;18.34;49.92
80853;BME280;70270;43.434;28.338;2024-02-26T12:56:00;99934.81;;;19.48;49.63
80853;BME280;70270;43.434;28.338;2024-02-26T12:58:45;99961.28;;;20.06;48.05
80853;BME280;70270;43.434;28.338;2024-02-26T13:01:31;99951.88;;;20.44;46.53
80853;BME280;70270;43.434;28.338;2024-02-26T13:04:16;99954.47;;;20.81;46.08
80853;BME280;70270;43.434;28.338;2024-02-26T13:07:03;99953.06;;;20.79;46.06
80853;BME280;70270;43.434;28.338;2024-02-26T13:09:49;99953.13;;;20.89;45.16
80853;BME280;70270;43.434;28.338;2024-02-26T13:12:34;99927.16;;;20.60;45.75
80853;BME280;70270;43.434;28.338;2024-02-26T13:15:20;99959.59;;;20.47;46.45
80853;BME280;70270;43.434;28.338;2024-02-26T13:18:13;99961.06;;;20.18;47.09
80853;BME280;70270;43.434;28.338;2024-02-26T13:21:12;99959.09;;;20.03;47.33
80853;BME280;70270;43.434;28.338;2024-02-26T13:23:57;99961.19;;;20.38;46.42
80853;BME280;70270;43.434;28.338;2024-02-26T13:26:41;99925.91;;;20.25;46.14
80853;BME280;70270;43.434;28.338;2024-02-26T13:29:26;99945.69;;;20.89;45.38
80853;BME280;70270;43.434;28.338;2024-02-26T13:32:10;99951.53;;;21.13;44.13
80853;BME280;70270;43.434;28.338;2024-02-26T13:35:09;99960.06;;;21.32;44.05
80853;BME280;70270;43.434;28.338;2024-02-26T13:37:54;99957.25;;;21.07;44.50
80853;BME280;70270;43.434;28.338;2024-02-26T13:40:39;99956.97;;;20.93;44.36
80853;BME280;70270;43.434;28.338;2024-02-26T13:43:24;99839.13;;;19.97;44.54
80853;BME280;70270;43.434;28.338;2024-02-26T13:46:08;99959.44;;;20.22;46.38
80853;BME280;70270;43.434;28.338;2024-02-26T13:48:55;99932.09;;;19.53;46.90
80853;BME280;70270;43.434;28.338;2024-02-26T13:51:40;99978.19;;;19.46;47.83
80853;BME280;70270;43.434;28.338;2024-02-26T13:54:25;99958.50;;;19.28;48.08
80853;BME280;70270;43.434;28.338;2024-02-26T13:57:09;99969.25;;;19.29;48.37
80853;BME280;70270;43.434;28.338;2024-02-26T13:59:54;99939.94;;;19.08;48.09
80853;BME280;70270;43.434;28.338;2024-02-26T14:02:39;99959.22;;;19.13;48.50
80853;BME280;70270;43.434;28.338;2024-02-26T14:05:23;99962.66;;;19.30;47.88
80853;BME280;70270;43.434;28.338;2024-02-26T14:08:08;99973.81;;;19.18;48.13
80853;BME280;70270;43.434;28.338;2024-02-26T14:10:52;99968.34;;;18.92;49.17
80853;BME280;70270;43.434;28.338;2024-02-26T14:13:37;99830.34;;;17.77;49.33
80853;BME280;70270;43.434;28.338;2024-02-26T14:16:21;99951.97;;;18.32;49.68
80853;BME280;70270;43.434;28.338;2024-02-26T14:19:06;99971.44;;;18.30;50.38